Time;durP1;ratioP1;P1;durP2;ratioP2;P2;SDS_P1;SDS_P2;PMS_P1;PMS_P2;Temp;Humidity;BMP_temperature;BMP_pressure;BME280_temperature;BME280_humidity;BME280_pressure;Samples;Min_cycle;Max_cycle;Signal;HPM_P1;HPM_P2
2023/08/25 00:01:16;;;;;;;7.63;4.00;;;18.30;99.90;;;;;;5053743;28;20647;-86
2023/08/25 00:03:43;;;;;;;8.02;3.90;;;18.30;99.90;;;;;;5053919;28;20252;-86
2023/08/25 00:06:09;;;;;;;6.80;4.22;;;18.30;99.90;;;;;;5054383;28;20644;-86
2023/08/25 00:08:36;;;;;;;6.72;4.50;;;18.30;99.90;;;;;;5055492;28;20173;-86
2023/08/25 00:11:02;;;;;;;7.13;4.25;;;18.20;99.90;;;;;;5053973;28;20182;-86
2023/08/25 00:13:27;;;;;;;6.85;4.50;;;18.20;99.90;;;;;;5057221;28;20198;-86
2023/08/25 00:15:53;;;;;;;6.57;4.20;;;18.20;99.90;;;;;;5054021;28;20320;-86
2023/08/25 00:18:19;;;;;;;10.82;5.30;;;18.20;99.90;;;;;;5053667;28;20640;-86
2023/08/25 00:20:44;;;;;;;7.97;4.32;;;18.10;99.90;;;;;;5053923;28;20193;-86
2023/08/25 00:23:10;;;;;;;6.30;4.30;;;18.20;99.90;;;;;;5054474;28;20789;-86
2023/08/25 00:25:37;;;;;;;6.47;4.40;;;18.10;99.90;;;;;;5058814;28;20178;-86
2023/08/25 00:28:03;;;;;;;8.20;4.10;;;18.10;99.90;;;;;;5057523;28;20175;-86
2023/08/25 00:30:29;;;;;;;9.43;4.90;;;18.10;99.90;;;;;;5062059;28;20213;-86
2023/08/25 00:32:55;;;;;;;7.40;4.22;;;18.10;99.90;;;;;;5061630;28;20214;-86
2023/08/25 00:35:23;;;;;;;10.60;4.38;;;18.10;99.90;;;;;;5059410;28;20266;-88
2023/08/25 00:37:51;;;;;;;7.32;4.43;;;18.10;99.90;;;;;;5059978;28;20175;-88
2023/08/25 00:40:26;;;;;;;9.27;4.43;;;18.00;99.90;;;;;;5058069;28;20220;-87
2023/08/25 00:42:52;;;;;;;11.40;4.65;;;18.00;99.90;;;;;;5060071;28;20264;-87
2023/08/25 00:45:22;;;;;;;6.30;4.40;;;18.00;99.90;;;;;;5057512;28;20179;-87
2023/08/25 00:47:53;;;;;;;8.98;4.43;;;18.00;99.90;;;;;;5057913;28;20202;-87
2023/08/25 00:50:22;;;;;;;4.38;3.55;;;18.00;99.90;;;;;;5058011;28;20251;-85
2023/08/25 00:52:48;;;;;;;10.43;4.35;;;17.90;99.90;;;;;;5057592;28;20181;-86
2023/08/25 00:55:14;;;;;;;7.78;4.30;;;17.90;99.90;;;;;;5058156;28;20194;-86
2023/08/25 00:57:40;;;;;;;8.65;4.20;;;17.80;99.90;;;;;;5058093;28;20209;-87
2023/08/25 01:00:09;;;;;;;6.88;4.18;;;17.70;99.90;;;;;;5057609;28;20297;-86
2023/08/25 01:02:35;;;;;;;8.30;4.45;;;17.70;99.90;;;;;;5057576;28;20179;-88
2023/08/25 01:05:01;;;;;;;8.45;4.03;;;17.70;99.90;;;;;;5057477;28;20206;-89
2023/08/25 01:07:27;;;;;;;6.43;4.05;;;17.70;99.90;;;;;;5057899;28;20175;-85
2023/08/25 01:09:54;;;;;;;6.65;3.95;;;17.70;99.90;;;;;;5063775;28;20261;-84
2023/08/25 01:12:45;;;;;;;5.07;4.38;;;17.70;99.90;;;;;;5061400;28;20178;-84
2023/08/25 01:15:33;;;;;;;9.68;4.00;;;17.70;99.90;;;;;;5060874;28;20225;-84
2023/08/25 01:18:12;;;;;;;7.47;4.03;;;17.60;99.90;;;;;;5063037;28;20188;-84
2023/08/25 01:20:39;;;;;;;6.05;3.92;;;17.70;99.90;;;;;;5062789;28;20212;-84
2023/08/25 01:23:33;;;;;;;6.82;4.30;;;17.70;99.90;;;;;;5062777;28;20254;-85
2023/08/25 01:26:00;;;;;;;6.10;4.22;;;17.60;99.90;;;;;;5062542;28;20177;-84
2023/08/25 01:28:28;;;;;;;5.22;4.05;;;17.60;99.90;;;;;;5062044;28;20635;-84
2023/08/25 01:30:56;;;;;;;7.78;4.30;;;17.60;99.90;;;;;;5063544;28;20189;-84
2023/08/25 01:33:32;;;;;;;6.47;4.57;;;17.60;99.90;;;;;;5061367;28;20202;-85
2023/08/25 01:35:58;;;;;;;6.60;4.43;;;17.60;99.90;;;;;;5058500;28;20167;-84
2023/08/25 01:38:32;;;;;;;6.65;4.20;;;17.60;99.90;;;;;;5058413;28;20177;-84
2023/08/25 01:41:41;;;;;;;5.78;4.00;;;17.60;99.90;;;;;;5058118;28;20650;-84
2023/08/25 01:44:09;;;;;;;7.57;4.18;;;17.50;99.90;;;;;;5050162;28;20213;-84
2023/08/25 01:46:37;;;;;;;5.40;4.28;;;17.50;99.90;;;;;;5059156;28;20177;-84
2023/08/25 01:49:04;;;;;;;5.80;4.05;;;17.40;99.90;;;;;;5060370;28;20189;-87
2023/08/25 01:51:30;;;;;;;8.55;3.97;;;17.40;99.90;;;;;;5057126;28;20669;-87
2023/08/25 01:53:56;;;;;;;7.10;4.18;;;17.30;99.90;;;;;;5056951;28;20285;-87
2023/08/25 01:56:23;;;;;;;8.70;4.30;;;17.30;99.90;;;;;;5056489;28;20585;-87
2023/08/25 01:58:49;;;;;;;8.80;4.50;;;17.30;99.90;;;;;;5054933;28;20268;-87
2023/08/25 02:01:15;;;;;;;5.18;3.70;;;17.30;99.90;;;;;;5055339;28;20648;-87
2023/08/25 02:03:41;;;;;;;9.00;4.68;;;17.30;99.90;;;;;;5055136;28;20203;-87
2023/08/25 02:06:09;;;;;;;5.20;4.50;;;17.30;99.90;;;;;;5057664;28;20170;-87
2023/08/25 02:08:35;;;;;;;7.50;3.70;;;17.30;99.90;;;;;;5054912;28;20558;-87
2023/08/25 02:11:01;;;;;;;7.38;3.90;;;17.20;99.90;;;;;;5056390;28;20162;-87
2023/08/25 02:13:27;;;;;;;4.90;3.70;;;17.20;99.90;;;;;;5054832;28;20198;-87
2023/08/25 02:15:53;;;;;;;6.80;3.67;;;17.20;99.90;;;;;;5054316;28;20182;-87
2023/08/25 02:18:19;;;;;;;5.00;3.67;;;17.20;99.90;;;;;;5054538;28;20174;-86
2023/08/25 02:20:45;;;;;;;6.07;3.25;;;17.20;99.90;;;;;;5054437;28;20297;-86
2023/08/25 02:23:10;;;;;;;5.78;3.75;;;17.20;99.90;;;;;;5054384;28;20175;-87
2023/08/25 02:25:36;;;;;;;10.00;4.68;;;17.30;99.90;;;;;;5054189;28;20646;-87
2023/08/25 02:28:02;;;;;;;8.85;3.95;;;17.50;99.90;;;;;;5055536;28;20190;-87
2023/08/25 02:30:28;;;;;;;5.95;3.72;;;17.60;99.90;;;;;;5054451;28;20178;-87
2023/08/25 02:32:57;;;;;;;7.55;4.28;;;17.70;99.90;;;;;;5053913;28;20592;-87
2023/08/25 02:35:22;;;;;;;5.13;4.05;;;17.80;99.90;;;;;;5055173;28;20204;-87
2023/08/25 02:38:04;;;;;;;6.05;4.28;;;17.90;99.90;;;;;;5054326;28;20265;-87
2023/08/25 02:40:30;;;;;;;5.55;4.00;;;18.00;99.90;;;;;;5053935;28;20198;-87
2023/08/25 02:42:58;;;;;;;9.23;4.43;;;18.00;99.90;;;;;;5053937;28;20198;-87
2023/08/25 02:45:26;;;;;;;5.18;3.63;;;18.00;99.90;;;;;;5055135;28;20182;-87
2023/08/25 02:47:53;;;;;;;8.90;4.20;;;18.00;99.90;;;;;;5053905;28;20537;-85
2023/08/25 02:50:19;;;;;;;7.88;3.88;;;18.00;99.90;;;;;;5054956;28;20181;-85
2023/08/25 02:52:45;;;;;;;6.97;4.05;;;17.90;99.90;;;;;;5052328;28;20345;-85
2023/08/25 02:55:14;;;;;;;6.35;4.40;;;17.90;99.90;;;;;;5053212;28;20294;-85
2023/08/25 02:57:40;;;;;;;14.05;5.10;;;17.80;99.90;;;;;;5054268;28;20198;-85
2023/08/25 03:00:08;;;;;;;5.53;3.58;;;17.80;99.90;;;;;;5053174;28;20212;-85
2023/08/25 03:02:34;;;;;;;6.78;4.22;;;17.70;99.90;;;;;;5053727;28;20265;-85
2023/08/25 03:05:01;;;;;;;5.20;4.00;;;17.60;99.90;;;;;;5052966;28;20226;-85
2023/08/25 03:07:27;;;;;;;6.10;3.85;;;17.50;99.90;;;;;;5053480;28;20266;-85
2023/08/25 03:09:52;;;;;;;9.07;4.18;;;17.50;99.90;;;;;;5053293;28;20214;-85
2023/08/25 03:12:18;;;;;;;9.70;4.68;;;17.50;99.90;;;;;;5054328;28;20178;-85
2023/08/25 03:14:44;;;;;;;9.35;5.10;;;17.40;99.90;;;;;;5053413;28;20209;-86
2023/08/25 03:17:10;;;;;;;6.95;4.88;;;17.40;99.90;;;;;;5053114;28;20175;-86
2023/08/25 03:19:37;;;;;;;5.60;4.25;;;17.50;99.90;;;;;;5054507;28;20198;-86
2023/08/25 03:22:03;;;;;;;6.70;4.60;;;17.50;99.90;;;;;;5053235;28;20235;-86
2023/08/25 03:24:29;;;;;;;8.15;4.68;;;17.50;99.90;;;;;;5053155;28;20216;-86
2023/08/25 03:26:57;;;;;;;9.98;4.80;;;17.50;99.90;;;;;;5054232;28;20178;-86
2023/08/25 03:29:24;;;;;;;7.32;4.18;;;17.50;99.90;;;;;;5055961;28;20539;-85
2023/08/25 03:31:50;;;;;;;8.95;4.78;;;17.40;99.90;;;;;;5053686;28;20179;-86
2023/08/25 03:34:15;;;;;;;8.57;4.53;;;17.40;99.90;;;;;;5053313;28;20209;-86
2023/08/25 03:36:41;;;;;;;8.40;3.85;;;17.30;99.90;;;;;;5053014;28;20233;-85
2023/08/25 03:39:07;;;;;;;6.63;3.72;;;17.30;99.90;;;;;;5052756;28;20202;-85
2023/08/25 03:41:33;;;;;;;5.25;3.80;;;17.20;99.90;;;;;;5053034;28;20265;-85
2023/08/25 03:43:58;;;;;;;7.57;3.90;;;17.10;99.90;;;;;;5054335;28;20193;-85
2023/08/25 03:46:24;;;;;;;6.10;3.60;;;17.10;99.90;;;;;;5052912;28;20174;-85
2023/08/25 03:48:50;;;;;;;8.68;3.97;;;17.00;99.90;;;;;;5052804;28;20221;-85
2023/08/25 03:51:16;;;;;;;6.40;4.15;;;16.90;99.90;;;;;;5052642;28;20179;-85
2023/08/25 03:53:42;;;;;;;6.38;3.83;;;16.90;99.90;;;;;;5052954;28;20198;-85
2023/08/25 03:56:07;;;;;;;6.00;3.55;;;16.90;99.90;;;;;;5053079;28;20673;-85
2023/08/25 03:58:33;;;;;;;7.90;3.88;;;16.90;99.90;;;;;;5053362;28;20190;-85
2023/08/25 04:00:59;;;;;;;8.50;3.92;;;16.90;99.90;;;;;;5054484;28;20183;-85
2023/08/25 04:03:25;;;;;;;6.63;4.00;;;16.90;99.90;;;;;;5053985;28;20206;-85
2023/08/25 04:05:50;;;;;;;6.07;3.58;;;16.80;99.90;;;;;;5057157;28;20186;-85
2023/08/25 04:08:16;;;;;;;10.80;4.75;;;16.80;99.90;;;;;;5057947;28;20254;-85
2023/08/25 04:10:43;;;;;;;10.77;4.30;;;16.80;99.90;;;;;;5056676;28;20201;-85
2023/08/25 04:13:09;;;;;;;5.60;4.00;;;16.80;99.90;;;;;;5056688;28;20190;-85
2023/08/25 04:15:36;;;;;;;8.05;4.22;;;16.70;99.90;;;;;;5056696;28;20186;-86
2023/08/25 04:18:02;;;;;;;6.68;5.18;;;16.80;99.90;;;;;;5056580;28;20186;-86
2023/08/25 04:20:28;;;;;;;6.95;4.55;;;16.80;99.90;;;;;;5056873;28;20307;-87
2023/08/25 04:22:54;;;;;;;5.57;4.20;;;16.80;99.90;;;;;;5060394;28;20242;-87
2023/08/25 04:25:20;;;;;;;6.93;4.03;;;16.80;99.90;;;;;;5057516;28;20260;-87
2023/08/25 04:27:47;;;;;;;8.80;4.50;;;16.80;99.90;;;;;;5057225;28;20177;-87
2023/08/25 04:30:13;;;;;;;7.03;4.05;;;16.70;99.90;;;;;;5057719;28;20185;-86
2023/08/25 04:32:39;;;;;;;5.80;4.18;;;16.80;99.90;;;;;;5058111;28;20175;-86
2023/08/25 04:35:05;;;;;;;6.90;4.47;;;16.70;99.90;;;;;;5056944;28;20202;-86
2023/08/25 04:37:31;;;;;;;6.10;4.60;;;16.70;99.90;;;;;;5058887;28;20179;-87
2023/08/25 04:39:57;;;;;;;13.02;4.50;;;16.80;99.90;;;;;;5056748;28;20201;-87
2023/08/25 04:42:23;;;;;;;9.70;4.68;;;16.80;99.90;;;;;;5056816;28;20339;-87
2023/08/25 04:44:49;;;;;;;6.03;4.65;;;16.80;99.90;;;;;;5056669;28;20190;-87
2023/08/25 04:47:16;;;;;;;7.63;4.97;;;16.70;99.90;;;;;;5056491;28;20184;-87
2023/08/25 04:49:43;;;;;;;5.47;3.97;;;16.70;99.90;;;;;;5057819;28;20185;-87
2023/08/25 04:52:09;;;;;;;6.28;4.80;;;16.70;99.90;;;;;;5055754;28;20213;-87
2023/08/25 04:54:35;;;;;;;7.40;4.90;;;16.70;99.90;;;;;;5055170;28;20198;-87
2023/08/25 04:57:00;;;;;;;11.27;4.55;;;16.80;99.90;;;;;;5054979;28;20214;-87
2023/08/25 04:59:26;;;;;;;8.93;5.00;;;16.80;99.90;;;;;;5055272;28;20237;-87
2023/08/25 05:01:52;;;;;;;7.72;4.65;;;16.80;99.90;;;;;;5055353;28;20179;-87
2023/08/25 05:04:18;;;;;;;9.93;5.13;;;16.80;99.90;;;;;;5056710;28;20265;-87
2023/08/25 05:06:43;;;;;;;10.98;4.90;;;16.90;99.90;;;;;;5055288;28;20186;-86
2023/08/25 05:09:09;;;;;;;8.23;5.18;;;17.00;99.90;;;;;;5054990;28;20189;-86
2023/08/25 05:11:35;;;;;;;7.75;4.70;;;17.00;99.90;;;;;;5055560;28;20252;-86
2023/08/25 05:14:01;;;;;;;8.40;5.40;;;17.00;99.90;;;;;;5056305;28;20641;-86
2023/08/25 05:16:27;;;;;;;7.38;4.57;;;17.00;99.90;;;;;;5054153;28;20183;-86
2023/08/25 05:18:53;;;;;;;7.25;5.25;;;17.10;99.90;;;;;;5056400;28;20202;-86
2023/08/25 05:21:19;;;;;;;8.70;4.90;;;17.20;99.90;;;;;;5055744;28;20178;-86
2023/08/25 05:23:46;;;;;;;9.60;4.55;;;17.20;99.90;;;;;;5055996;28;20256;-88
2023/08/25 05:26:13;;;;;;;8.32;5.45;;;17.30;99.90;;;;;;5057446;28;20292;-88
2023/08/25 05:28:39;;;;;;;7.75;4.60;;;17.30;99.90;;;;;;5055091;28;20651;-87
2023/08/25 05:31:05;;;;;;;7.75;5.53;;;17.30;99.90;;;;;;5054929;28;20209;-86
2023/08/25 05:33:30;;;;;;;9.93;5.43;;;17.40;99.90;;;;;;5055011;28;20194;-86
2023/08/25 05:35:56;;;;;;;9.95;5.65;;;17.30;99.90;;;;;;5055333;28;20228;-86
2023/08/25 05:38:22;;;;;;;7.03;5.30;;;17.40;99.90;;;;;;5055190;28;20178;-86
2023/08/25 05:40:47;;;;;;;8.48;6.03;;;17.50;99.90;;;;;;5054903;28;20285;-86
2023/08/25 05:43:13;;;;;;;12.02;5.60;;;17.50;99.90;;;;;;5054667;28;20174;-86
2023/08/25 05:45:39;;;;;;;9.80;5.18;;;17.50;99.90;;;;;;5056337;28;20190;-86
2023/08/25 05:48:05;;;;;;;8.80;5.70;;;17.60;99.90;;;;;;5055018;28;20174;-86
2023/08/25 05:50:31;;;;;;;8.15;5.50;;;17.80;99.90;;;;;;5054882;28;20185;-86
2023/08/25 05:52:57;;;;;;;8.27;5.43;;;17.80;99.90;;;;;;5056052;28;20170;-86
2023/08/25 05:55:23;;;;;;;8.35;5.40;;;17.90;99.90;;;;;;5054880;28;20187;-86
2023/08/25 05:57:49;;;;;;;8.00;5.65;;;17.90;99.90;;;;;;5055882;28;20281;-86
2023/08/25 06:00:17;;;;;;;10.32;5.47;;;18.00;99.90;;;;;;5055814;28;20265;-86
2023/08/25 06:02:43;;;;;;;6.20;4.80;;;18.10;99.90;;;;;;5054826;28;20242;-87
2023/08/25 06:05:08;;;;;;;6.40;5.38;;;18.10;99.90;;;;;;5054948;28;20663;-87
2023/08/25 06:07:34;;;;;;;9.82;5.63;;;18.10;99.90;;;;;;5055634;28;20170;-87
2023/08/25 06:10:00;;;;;;;7.07;4.93;;;18.10;99.90;;;;;;5055217;28;20229;-86
2023/08/25 06:12:26;;;;;;;11.48;5.20;;;18.10;99.90;;;;;;5054158;28;20192;-86
2023/08/25 06:14:52;;;;;;;8.98;4.65;;;18.20;99.90;;;;;;5053752;28;20667;-86
2023/08/25 06:17:18;;;;;;;8.05;5.55;;;18.20;99.90;;;;;;5054231;28;20273;-86
2023/08/25 06:19:43;;;;;;;15.55;5.70;;;18.30;99.90;;;;;;5053740;28;20289;-86
2023/08/25 06:22:11;;;;;;;6.43;5.28;;;18.20;99.90;;;;;;5055358;28;20249;-86
2023/08/25 06:24:36;;;;;;;9.65;5.68;;;18.20;99.90;;;;;;5053450;28;20190;-86
2023/08/25 06:27:02;;;;;;;8.70;5.75;;;18.30;99.90;;;;;;5054389;28;20197;-86
2023/08/25 06:29:29;;;;;;;8.27;6.10;;;18.30;99.90;;;;;;5053624;28;20647;-89
2023/08/25 06:31:56;;;;;;;9.55;5.18;;;18.40;99.90;;;;;;5053565;28;20231;-87
2023/08/25 06:34:23;;;;;;;6.57;5.07;;;18.50;99.90;;;;;;5054886;28;20883;-91
2023/08/25 06:36:49;;;;;;;11.90;5.82;;;18.60;99.90;;;;;;5055587;28;20170;-91
2023/08/25 06:39:15;;;;;;;9.35;6.18;;;18.70;99.90;;;;;;5056711;28;20673;-91
2023/08/25 06:41:40;;;;;;;12.18;6.30;;;18.80;99.90;;;;;;5056585;28;20516;-92
2023/08/25 06:44:06;;;;;;;7.85;5.60;;;18.90;99.90;;;;;;5057191;28;20593;-92
2023/08/25 06:46:33;;;;;;;11.15;5.97;;;19.00;99.90;;;;;;5059159;28;20260;-91
2023/08/25 06:48:58;;;;;;;8.32;5.90;;;19.10;99.90;;;;;;5060969;28;20265;-92
2023/08/25 06:51:24;;;;;;;9.68;5.78;;;19.20;99.90;;;;;;5063707;28;20182;-91
2023/08/25 06:53:50;;;;;;;9.63;6.13;;;19.20;99.90;;;;;;5058601;28;20220;-91
2023/08/25 06:56:16;;;;;;;6.50;5.32;;;19.30;99.90;;;;;;5055224;28;20182;-91
2023/08/25 06:58:42;;;;;;;13.27;6.78;;;19.40;99.90;;;;;;5053357;28;20194;-91
2023/08/25 07:01:07;;;;;;;8.63;6.15;;;19.40;99.90;;;;;;5053424;28;20636;-91
2023/08/25 07:03:34;;;;;;;8.93;5.97;;;19.50;99.90;;;;;;5054944;28;20643;-91
2023/08/25 07:06:00;;;;;;;9.13;5.10;;;19.50;99.90;;;;;;5058955;28;20602;-91
2023/08/25 07:08:27;;;;;;;11.82;5.35;;;19.50;99.90;;;;;;5059422;28;20186;-92
2023/08/25 07:10:53;;;;;;;9.18;5.30;;;19.50;99.90;;;;;;5059117;28;20198;-92
2023/08/25 07:13:19;;;;;;;9.60;5.13;;;19.60;99.90;;;;;;5057927;28;20355;-91
2023/08/25 07:15:44;;;;;;;9.00;5.45;;;19.60;99.90;;;;;;5055136;28;20175;-91
2023/08/25 07:18:10;;;;;;;8.68;4.85;;;19.70;99.90;;;;;;5053046;28;20178;-91
2023/08/25 07:20:36;;;;;;;10.35;5.82;;;19.80;99.90;;;;;;5053141;28;20251;-91
2023/08/25 07:23:02;;;;;;;11.32;5.80;;;19.90;99.90;;;;;;5052981;28;20639;-91
2023/08/25 07:25:27;;;;;;;9.45;5.50;;;19.80;99.90;;;;;;5053482;28;20178;-91
2023/08/25 07:27:53;;;;;;;11.38;6.70;;;19.70;99.90;;;;;;5053435;28;20177;-91
2023/08/25 07:30:19;;;;;;;12.55;6.50;;;19.60;99.90;;;;;;5053203;28;20178;-91
2023/08/25 07:32:45;;;;;;;10.77;6.22;;;19.60;99.90;;;;;;5053026;28;20546;-90
2023/08/25 07:35:13;;;;;;;11.77;6.40;;;19.40;99.90;;;;;;5054310;28;20212;-90
2023/08/25 07:37:41;;;;;;;11.48;7.28;;;19.40;99.90;;;;;;5053784;28;20179;-90
2023/08/25 07:40:07;;;;;;;14.32;7.45;;;19.30;99.90;;;;;;5056730;28;20209;-93
2023/08/25 07:42:33;;;;;;;13.82;8.63;;;19.20;99.90;;;;;;5057263;28;20190;-93
2023/08/25 07:44:59;;;;;;;12.55;8.82;;;19.30;99.90;;;;;;5057360;28;20248;-91
2023/08/25 07:47:24;;;;;;;9.60;7.05;;;19.30;99.90;;;;;;5056751;28;20265;-90
2023/08/25 07:49:50;;;;;;;11.25;8.60;;;19.40;99.90;;;;;;5057084;28;20229;-91
2023/08/25 07:52:16;;;;;;;9.77;7.40;;;19.40;99.90;;;;;;5056833;28;20178;-92
2023/08/25 07:54:42;;;;;;;13.38;7.35;;;19.50;99.90;;;;;;5056777;28;20202;-93
2023/08/25 07:57:08;;;;;;;8.85;7.28;;;19.60;99.90;;;;;;5056400;28;20536;-92
2023/08/25 07:59:34;;;;;;;11.52;8.15;;;19.70;99.90;;;;;;5056564;28;20209;-91
2023/08/25 08:02:00;;;;;;;14.75;8.77;;;19.50;99.90;;;;;;5056174;28;20228;-91
2023/08/25 08:04:26;;;;;;;11.50;8.25;;;19.40;99.90;;;;;;5080655;22;20661;-75
2023/08/25 08:06:51;;;;;;;16.92;9.85;;;19.20;99.90;;;;;;5077106;28;20166;-75
2023/08/25 08:09:17;;;;;;;16.33;10.18;;;19.10;99.90;;;;;;5076082;28;20295;-75
2023/08/25 08:11:43;;;;;;;16.52;9.68;;;19.00;99.90;;;;;;5076911;28;20162;-75
2023/08/25 08:14:09;;;;;;;17.92;10.38;;;19.00;99.90;;;;;;5075890;28;20208;-76
2023/08/25 08:16:35;;;;;;;14.82;9.10;;;18.90;99.90;;;;;;5075683;28;20669;-76
2023/08/25 08:19:02;;;;;;;14.45;10.55;;;18.90;99.90;;;;;;5077274;28;20213;-77
2023/08/25 08:21:28;;;;;;;17.35;9.77;;;18.80;99.90;;;;;;5075573;28;20180;-77
2023/08/25 08:23:54;;;;;;;15.18;9.70;;;18.80;99.90;;;;;;5076779;28;20170;-76
2023/08/25 08:26:22;;;;;;;16.42;9.68;;;18.80;99.90;;;;;;5076653;28;20170;-77
2023/08/25 08:28:48;;;;;;;16.63;9.90;;;18.80;99.90;;;;;;5075777;28;20190;-76
2023/08/25 08:31:18;;;;;;;13.90;9.70;;;18.80;99.90;;;;;;5058945;28;20166;-76
2023/08/25 08:33:47;;;;;;;25.50;10.57;;;18.70;99.90;;;;;;5075499;28;20597;-77
2023/08/25 08:36:17;;;;;;;18.77;10.95;;;18.70;99.90;;;;;;5075462;28;20184;-77
2023/08/25 08:38:42;;;;;;;22.50;11.38;;;18.60;99.90;;;;;;5075314;28;20162;-76
2023/08/25 08:41:10;;;;;;;20.92;11.27;;;18.60;99.90;;;;;;5076790;28;20638;-77
2023/08/25 08:43:39;;;;;;;24.08;12.35;;;18.50;99.90;;;;;;5075238;28;20178;-76
2023/08/25 08:46:06;;;;;;;20.08;10.95;;;18.50;99.90;;;;;;5076343;28;20277;-77
2023/08/25 08:48:34;;;;;;;18.20;11.05;;;18.40;99.90;;;;;;5076375;28;20174;-76
2023/08/25 08:51:02;;;;;;;18.95;12.30;;;18.40;99.90;;;;;;5076255;28;20212;-76
2023/08/25 08:53:28;;;;;;;21.73;11.57;;;18.40;99.90;;;;;;5075679;28;20189;-78
2023/08/25 08:55:56;;;;;;;24.13;12.93;;;18.40;99.90;;;;;;5083395;28;20166;-77
2023/08/25 08:58:22;;;;;;;25.63;13.38;;;18.40;99.90;;;;;;5081662;28;20642;-77
2023/08/25 09:00:49;;;;;;;29.42;13.13;;;18.40;99.90;;;;;;5078565;28;20201;-77
2023/08/25 09:03:19;;;;;;;22.90;13.77;;;18.40;99.90;;;;;;5077973;28;20181;-77
2023/08/25 09:05:47;;;;;;;30.10;14.95;;;18.40;99.90;;;;;;5075331;28;20194;-76
2023/08/25 09:08:15;;;;;;;29.60;14.63;;;18.30;99.90;;;;;;5075431;28;20170;-77
2023/08/25 09:10:41;;;;;;;23.13;15.18;;;18.30;99.90;;;;;;5075194;28;20593;-77
2023/08/25 09:13:07;;;;;;;31.73;15.48;;;18.30;99.90;;;;;;5075414;28;20178;-78
2023/08/25 09:15:33;;;;;;;27.02;15.60;;;18.40;99.90;;;;;;5075394;28;20192;-78
2023/08/25 09:18:04;;;;;;;31.33;16.45;;;18.40;99.90;;;;;;5077727;28;20204;-76
2023/08/25 09:20:35;;;;;;;32.10;18.67;;;18.40;99.90;;;;;;5074581;28;20304;-77
2023/08/25 09:23:02;;;;;;;23.90;15.25;;;18.40;99.90;;;;;;5074872;28;20261;-77
2023/08/25 09:25:28;;;;;;;26.52;15.93;;;18.40;99.90;;;;;;5074542;28;20538;-76
2023/08/25 09:27:58;;;;;;;31.67;17.42;;;18.50;99.90;;;;;;5074198;28;20173;-75
2023/08/25 09:30:41;;;;;;;30.02;17.75;;;18.50;99.90;;;;;;5074235;28;20201;-76
2023/08/25 09:33:13;;;;;;;26.25;14.88;;;18.50;99.90;;;;;;5074589;28;20184;-77
2023/08/25 09:35:40;;;;;;;21.98;13.25;;;18.50;99.90;;;;;;5075924;28;20211;-77
2023/08/25 09:38:07;;;;;;;20.75;14.35;;;18.50;99.90;;;;;;5075001;28;20177;-78
2023/08/25 09:40:35;;;;;;;18.55;13.70;;;18.60;99.90;;;;;;5076379;28;20692;-78
2023/08/25 09:43:05;;;;;;;22.23;13.00;;;18.60;99.90;;;;;;5076221;28;20178;-78
2023/08/25 09:45:32;;;;;;;20.10;13.55;;;18.50;99.90;;;;;;5077276;28;20219;-78
2023/08/25 09:48:09;;;;;;;22.67;14.02;;;18.60;99.90;;;;;;5074059;28;20181;-78
2023/08/25 09:50:39;;;;;;;20.67;11.80;;;18.60;99.90;;;;;;5078453;28;20234;-82
2023/08/25 09:53:10;;;;;;;19.80;14.27;;;18.70;99.90;;;;;;5079387;28;20173;-81
2023/08/25 09:55:37;;;;;;;20.55;14.57;;;18.70;99.90;;;;;;5079911;28;20628;-81
2023/08/25 09:58:08;;;;;;;18.55;14.50;;;18.70;99.90;;;;;;5076458;28;20182;-81
2023/08/25 10:00:36;;;;;;;21.33;15.63;;;18.70;99.90;;;;;;5077408;28;20197;-81
2023/08/25 10:03:10;;;;;;;16.60;12.50;;;18.80;99.90;;;;;;5079450;28;20166;-81
2023/08/25 10:05:37;;;;;;;20.80;15.38;;;18.90;99.90;;;;;;5082979;28;20188;-82
2023/08/25 10:08:06;;;;;;;15.82;12.95;;;19.00;99.90;;;;;;5078275;28;20205;-81
2023/08/25 10:10:36;;;;;;;18.17;14.65;;;19.10;99.90;;;;;;5077740;28;20205;-81
2023/08/25 10:13:03;;;;;;;18.38;13.40;;;19.20;99.90;;;;;;5078274;28;20232;-81
2023/08/25 10:15:31;;;;;;;15.43;12.25;;;19.30;99.90;;;;;;5075700;28;20235;-82
2023/08/25 10:18:03;;;;;;;22.55;13.65;;;19.20;99.90;;;;;;5077485;28;20213;-82
2023/08/25 10:20:30;;;;;;;20.23;11.77;;;19.30;99.90;;;;;;5076680;28;20685;-82
2023/08/25 10:22:57;;;;;;;17.00;13.07;;;19.40;99.90;;;;;;5079276;28;20616;-81
2023/08/25 10:25:27;;;;;;;14.10;10.98;;;19.50;99.90;;;;;;5080027;28;20202;-82
2023/08/25 10:27:54;;;;;;;12.23;10.48;;;19.50;99.90;;;;;;5078952;28;20174;-80
2023/08/25 10:30:21;;;;;;;18.38;11.98;;;19.40;99.90;;;;;;5079061;28;20194;-78
2023/08/25 10:32:54;;;;;;;16.63;11.93;;;19.20;99.90;;;;;;5075040;28;20722;-79
2023/08/25 10:35:44;;;;;;;15.95;12.15;;;19.00;99.90;;;;;;5078079;28;20637;-78
2023/08/25 10:38:29;;;;;;;20.67;12.93;;;18.90;99.90;;;;;;5079286;28;20215;-79
2023/08/25 10:40:56;;;;;;;17.17;12.30;;;18.80;99.90;;;;;;5065722;28;20221;-78
2023/08/25 10:43:27;;;;;;;18.25;11.48;;;18.80;99.90;;;;;;5073221;28;20680;-79
2023/08/25 10:45:53;;;;;;;16.45;11.90;;;18.70;99.90;;;;;;5074402;28;20660;-78
2023/08/25 10:48:21;;;;;;;14.30;10.35;;;18.70;99.90;;;;;;5072997;28;20262;-78
2023/08/25 10:50:51;;;;;;;17.88;12.25;;;18.70;99.90;;;;;;5073224;28;20198;-79
2023/08/25 10:53:39;;;;;;;18.48;11.68;;;18.70;99.90;;;;;;5073047;28;20668;-79
2023/08/25 10:56:17;;;;;;;21.13;13.55;;;18.70;99.90;;;;;;5072844;28;20185;-78
2023/08/25 10:59:01;;;;;;;19.85;12.27;;;18.60;99.90;;;;;;5074019;28;20219;-78
2023/08/25 11:01:52;;;;;;;19.38;12.55;;;18.60;99.90;;;;;;5072835;28;20173;-78
2023/08/25 11:04:29;;;;;;;24.08;14.13;;;18.50;99.90;;;;;;5073959;28;20174;-78
2023/08/25 11:06:59;;;;;;;24.55;13.38;;;18.50;99.90;;;;;;5072634;28;20231;-78
2023/08/25 11:09:26;;;;;;;17.58;12.18;;;18.50;99.90;;;;;;5073905;28;20201;-79
2023/08/25 11:12:10;;;;;;;15.10;11.13;;;18.40;99.90;;;;;;5072729;28;20184;-78
2023/08/25 11:14:37;;;;;;;19.15;11.57;;;18.40;99.90;;;;;;5071873;28;20177;-79
2023/08/25 11:17:05;;;;;;;14.18;10.20;;;18.40;99.90;;;;;;5074135;28;20185;-78
2023/08/25 11:19:32;;;;;;;20.55;11.50;;;18.40;99.90;;;;;;5072925;28;20259;-79
2023/08/25 11:22:03;;;;;;;22.75;12.80;;;18.30;99.90;;;;;;5072497;28;20184;-78
2023/08/25 11:24:30;;;;;;;26.00;14.50;;;18.30;99.90;;;;;;5072648;28;20661;-78
2023/08/25 11:27:03;;;;;;;15.45;12.48;;;18.40;99.90;;;;;;5072252;28;20178;-78
2023/08/25 11:29:29;;;;;;;17.02;11.65;;;18.30;99.90;;;;;;5072400;28;20194;-78
2023/08/25 11:31:55;;;;;;;12.30;10.10;;;18.30;99.90;;;;;;5072341;28;20189;-78
2023/08/25 11:34:21;;;;;;;26.80;11.13;;;18.20;99.90;;;;;;5074091;28;20177;-78
2023/08/25 11:36:47;;;;;;;13.32;9.80;;;18.10;99.90;;;;;;5072559;28;20182;-78
2023/08/25 11:39:19;;;;;;;17.42;10.60;;;18.10;99.90;;;;;;5072302;28;20212;-78
2023/08/25 11:41:46;;;;;;;13.48;9.30;;;18.00;99.90;;;;;;5073892;28;20356;-78
2023/08/25 11:44:12;;;;;;;19.08;9.90;;;18.10;99.90;;;;;;5073828;28;20256;-78
2023/08/25 11:46:39;;;;;;;13.63;9.57;;;18.10;99.90;;;;;;5072410;28;20231;-78
2023/08/25 11:49:06;;;;;;;20.17;10.52;;;18.20;99.90;;;;;;5072335;28;20200;-78
2023/08/25 11:51:35;;;;;;;12.80;9.50;;;18.50;99.90;;;;;;5073661;28;20252;-78
2023/08/25 11:54:02;;;;;;;14.35;10.90;;;18.90;99.90;;;;;;5073828;28;20543;-79
2023/08/25 11:56:27;;;;;;;12.50;10.15;;;19.30;99.90;;;;;;5073287;28;20174;-78
2023/08/25 11:58:53;;;;;;;15.32;9.30;;;19.50;99.90;;;;;;5071819;28;20178;-78
2023/08/25 12:01:19;;;;;;;11.00;8.90;;;19.40;99.90;;;;;;5072043;28;20174;-78
2023/08/25 12:03:46;;;;;;;15.68;8.52;;;19.30;99.90;;;;;;5073153;28;20228;-78
2023/08/25 12:06:13;;;;;;;15.18;8.60;;;19.20;99.90;;;;;;5073030;28;20596;-78
2023/08/25 12:08:41;;;;;;;10.85;7.60;;;19.10;99.90;;;;;;5071703;28;20188;-78
2023/08/25 12:11:10;;;;;;;10.65;7.95;;;18.80;99.90;;;;;;5071443;28;20680;-77
2023/08/25 12:13:40;;;;;;;8.82;7.05;;;18.70;99.90;;;;;;5071746;28;20192;-78
2023/08/25 12:16:06;;;;;;;8.93;6.95;;;18.70;99.90;;;;;;5059521;28;20653;-78
2023/08/25 12:18:36;;;;;;;10.18;6.63;;;18.90;99.90;;;;;;5051599;28;20237;-78
2023/08/25 12:21:04;;;;;;;8.65;6.75;;;19.20;99.90;;;;;;5051479;28;20194;-78
2023/08/25 12:23:38;;;;;;;7.70;5.80;;;19.70;99.90;;;;;;5052818;28;20186;-78
2023/08/25 12:26:14;;;;;;;10.70;6.80;;;19.80;99.90;;;;;;5054048;28;20265;-77
2023/08/25 12:28:43;;;;;;;13.20;6.30;;;19.90;99.90;;;;;;5056577;28;20179;-77
2023/08/25 12:31:09;;;;;;;8.93;5.18;;;19.80;99.90;;;;;;5055269;28;20186;-78
2023/08/25 12:33:34;;;;;;;9.88;5.65;;;19.60;99.90;;;;;;5055217;28;20224;-78
2023/08/25 12:36:00;;;;;;;10.70;5.95;;;19.50;99.90;;;;;;5055096;28;20178;-77
2023/08/25 12:38:27;;;;;;;9.73;6.38;;;19.70;99.90;;;;;;5056721;28;20185;-77
2023/08/25 12:40:53;;;;;;;6.97;5.05;;;19.80;99.90;;;;;;5054720;28;20253;-76
2023/08/25 12:43:19;;;;;;;7.38;5.40;;;19.90;99.90;;;;;;5055047;28;20179;-77